Time;durP1;ratioP1;P1;durP2;ratioP2;P2;SDS_P1;SDS_P2;PMS_P1;PMS_P2;Temp;Humidity;BMP_temperature;BMP_pressure;BME280_temperature;BME280_humidity;BME280_pressure;Samples;Min_cycle;Max_cycle;Signal;HPM_P1;HPM_P2
2022/08/12 00:43:29;;;;;;;15.95;9.10;;;;;;;;;;7310965;19;154297;-13
2022/08/12 00:48:46;;;;;;;15.23;9.85;;;;;;;;;;7313031;19;162648;-13
2022/08/12 00:51:18;;;;;;;14.70;9.45;;;;;;;;;;7315169;19;162347;-13
2022/08/12 00:53:49;;;;;;;16.67;10.13;;;;;;;;;;7313769;19;154409;-12
2022/08/12 00:56:22;;;;;;;15.13;9.35;;;;;;;;;;7313363;19;154081;-13
2022/08/12 00:58:55;;;;;;;12.27;8.90;;;;;;;;;;7314985;19;162205;-13
2022/08/12 01:01:26;;;;;;;14.90;9.38;;;;;;;;;;7310302;19;162929;-15
2022/08/12 01:12:14;;;;;;;13.75;10.00;;;;;;;;;;7313447;19;163296;-13
2022/08/12 01:14:46;;;;;;;12.43;9.82;;;;;;;;;;7313656;19;154418;-13
2022/08/12 01:17:18;;;;;;;14.57;9.80;;;;;;;;;;7312627;19;153966;-13
2022/08/12 01:19:54;;;;;;;13.93;10.13;;;;;;;;;;7310958;19;162888;-13
2022/08/12 01:22:30;;;;;;;16.27;9.95;;;;;;;;;;7313065;19;162772;-13
2022/08/12 01:25:11;;;;;;;12.95;9.02;;;;;;;;;;7314468;19;154393;-13
2022/08/12 01:27:44;;;;;;;15.90;10.43;;;;;;;;;;7312081;19;154676;-13
2022/08/12 01:30:16;;;;;;;13.82;8.90;;;;;;;;;;7314036;19;162176;-13
2022/08/12 01:32:50;;;;;;;11.48;9.02;;;;;;;;;;7311800;19;163158;-13
2022/08/12 01:35:23;;;;;;;14.35;9.52;;;;;;;;;;7313824;19;154897;-13
2022/08/12 01:37:59;;;;;;;9.70;8.63;;;;;;;;;;7312574;19;154081;-14
2022/08/12 01:40:35;;;;;;;11.20;9.15;;;;;;;;;;7312115;19;162272;-13
2022/08/12 01:43:10;;;;;;;12.88;10.02;;;;;;;;;;7311264;19;163281;-13
2022/08/12 01:45:49;;;;;;;11.57;8.95;;;;;;;;;;7313315;19;154715;-20
2022/08/12 01:48:38;;;;;;;12.10;9.38;;;;;;;;;;7311167;19;154039;-13
2022/08/12 01:51:22;;;;;;;14.55;9.27;;;;;;;;;;7312596;19;162654;-13
2022/08/12 01:54:03;;;;;;;14.68;9.60;;;;;;;;;;7311492;19;162752;-13
2022/08/12 01:56:47;;;;;;;13.85;9.15;;;;;;;;;;7311327;19;154604;-13
2022/08/12 02:02:15;;;;;;;12.02;9.68;;;;;;;;;;7309861;19;162894;-14
2022/08/12 02:13:49;;;;;;;13.15;9.30;;;;;;;;;;7311724;19;162669;-14
2022/08/12 02:16:33;;;;;;;11.85;8.82;;;;;;;;;;7312810;19;162767;-14
2022/08/12 02:19:18;;;;;;;11.98;8.93;;;;;;;;;;7311891;19;154492;-14
2022/08/12 02:22:00;;;;;;;15.50;8.40;;;;;;;;;;7311201;19;154050;-12
2022/08/12 02:24:34;;;;;;;12.50;9.03;;;;;;;;;;7312147;19;162675;-13
2022/08/12 02:27:09;;;;;;;10.23;9.10;;;;;;;;;;7310923;19;163227;-13
2022/08/12 02:29:44;;;;;;;11.68;8.77;;;;;;;;;;7311643;19;154446;-15
2022/08/12 02:32:16;;;;;;;13.05;8.80;;;;;;;;;;7309635;19;154142;-13
2022/08/12 02:34:48;;;;;;;13.80;9.47;;;;;;;;;;7311458;19;161716;-13
2022/08/12 02:37:20;;;;;;;13.30;9.23;;;;;;;;;;7311936;19;163097;-14
2022/08/12 02:39:52;;;;;;;11.20;8.88;;;;;;;;;;7311388;19;154512;-13
2022/08/12 02:42:25;;;;;;;12.30;9.20;;;;;;;;;;7308806;19;153993;-13
2022/08/12 02:45:02;;;;;;;13.07;9.77;;;;;;;;;;7310677;19;161736;-13
2022/08/12 02:47:40;;;;;;;12.02;9.13;;;;;;;;;;7309687;19;162841;-14
2022/08/12 02:50:12;;;;;;;13.00;9.70;;;;;;;;;;7311274;19;154363;-14
2022/08/12 02:52:44;;;;;;;13.82;8.88;;;;;;;;;;7310122;19;153942;-15
2022/08/12 02:55:20;;;;;;;14.00;9.43;;;;;;;;;;7308733;19;162366;-14
2022/08/12 02:57:53;;;;;;;13.70;9.68;;;;;;;;;;7309337;19;163213;-14
2022/08/12 03:00:28;;;;;;;12.88;9.27;;;;;;;;;;7310046;19;154368;-13
2022/08/12 03:03:02;;;;;;;12.98;9.07;;;;;;;;;;7305672;19;154601;-13
2022/08/12 03:05:36;;;;;;;12.55;8.95;;;;;;;;;;7311132;19;161792;-13
2022/08/12 03:08:13;;;;;;;12.50;8.93;;;;;;;;;;7316547;19;163785;-13
2022/08/12 03:10:47;;;;;;;11.18;8.90;;;;;;;;;;7316984;19;154448;-13
2022/08/12 03:13:22;;;;;;;10.15;8.68;;;;;;;;;;7316917;19;153585;-13
2022/08/12 03:15:57;;;;;;;10.20;7.97;;;;;;;;;;7314848;19;162864;-13
2022/08/12 03:18:31;;;;;;;11.35;8.48;;;;;;;;;;7314383;19;163339;-13
2022/08/12 03:21:03;;;;;;;12.95;9.50;;;;;;;;;;7316470;19;153892;-13
2022/08/12 03:23:35;;;;;;;12.10;8.45;;;;;;;;;;7316628;19;153986;-13
2022/08/12 03:26:07;;;;;;;11.53;8.77;;;;;;;;;;7316004;19;162216;-13
2022/08/12 03:28:55;;;;;;;13.15;8.27;;;;;;;;;;7314700;19;162964;-13
2022/08/12 03:31:32;;;;;;;10.00;8.68;;;;;;;;;;7315076;19;154409;-14
2022/08/12 03:34:06;;;;;;;11.68;8.55;;;;;;;;;;7316250;19;154455;-13
2022/08/12 03:36:39;;;;;;;13.65;8.98;;;;;;;;;;7314251;19;162412;-13
2022/08/12 03:39:33;;;;;;;11.52;9.10;;;;;;;;;;7316175;19;163317;-13
2022/08/12 03:42:11;;;;;;;11.63;9.20;;;;;;;;;;7315161;19;154374;-13
2022/08/12 04:01:24;;;;;;;10.93;8.13;;;;;;;;;;7315060;19;162862;-13
2022/08/12 04:04:00;;;;;;;11.10;9.02;;;;;;;;;;7315523;19;155042;-12
2022/08/12 04:06:32;;;;;;;10.73;8.98;;;;;;;;;;7315440;19;153944;-14
2022/08/12 04:09:04;;;;;;;12.00;8.85;;;;;;;;;;7315383;19;162120;-13
2022/08/12 04:14:23;;;;;;;12.43;8.93;;;;;;;;;;7312986;19;154553;-13
2022/08/12 04:16:55;;;;;;;12.18;9.43;;;;;;;;;;7315091;19;153633;-12
2022/08/12 04:19:29;;;;;;;12.63;8.63;;;;;;;;;;7313349;19;162829;-13
2022/08/12 04:22:01;;;;;;;10.70;8.75;;;;;;;;;;7312370;19;162869;-12
2022/08/12 04:24:34;;;;;;;12.57;9.60;;;;;;;;;;7315005;19;155003;-14
2022/08/12 04:27:09;;;;;;;11.65;9.20;;;;;;;;;;7314968;19;154345;-13
2022/08/12 04:29:41;;;;;;;13.27;9.07;;;;;;;;;;7314514;19;162274;-13
2022/08/12 04:32:12;;;;;;;;;;;;;;;;;;7315105;19;162850;-13
2022/08/12 04:34:46;;;;;;;11.50;8.35;;;;;;;;;;7314797;19;155158;-13
2022/08/12 04:37:17;;;;;;;11.57;9.23;;;;;;;;;;7315036;19;154395;-13
2022/08/12 04:39:50;;;;;;;10.90;8.32;;;;;;;;;;7314008;19;162218;-13
2022/08/12 04:42:21;;;;;;;11.40;9.40;;;;;;;;;;7313301;19;162771;-13
2022/08/12 04:44:52;;;;;;;11.82;9.00;;;;;;;;;;7314782;19;154541;-13
2022/08/12 04:47:25;;;;;;;11.75;8.93;;;;;;;;;;7312665;19;154193;-13
2022/08/12 04:50:00;;;;;;;10.95;9.23;;;;;;;;;;7314061;19;161833;-13
2022/08/12 04:52:31;;;;;;;11.45;8.77;;;;;;;;;;7313889;19;163458;-13
2022/08/12 04:55:05;;;;;;;10.55;8.30;;;;;;;;;;7314322;19;154361;-13
2022/08/12 04:57:36;;;;;;;10.63;8.75;;;;;;;;;;7313870;19;153509;-13
2022/08/12 05:00:14;;;;;;;11.07;9.13;;;;;;;;;;7313387;19;162336;-14
2022/08/12 05:02:46;;;;;;;11.07;8.68;;;;;;;;;;7312579;19;163249;-13
2022/08/12 05:05:22;;;;;;;11.35;8.30;;;;;;;;;;7314154;19;154898;-13
2022/08/12 05:07:54;;;;;;;11.85;9.27;;;;;;;;;;7313927;19;154549;-12
2022/08/12 05:10:25;;;;;;;11.93;8.93;;;;;;;;;;7313566;19;162255;-14
2022/08/12 05:12:59;;;;;;;9.90;8.00;;;;;;;;;;7313313;19;163392;-13
2022/08/12 05:15:31;;;;;;;11.18;9.23;;;;;;;;;;7313620;19;154471;-15
2022/08/12 05:18:02;;;;;;;11.98;9.25;;;;;;;;;;7313465;19;154297;-13
2022/08/12 05:20:36;;;;;;;12.35;8.70;;;;;;;;;;7309884;19;162954;-13
2022/08/12 05:23:08;;;;;;;9.80;7.88;;;;;;;;;;7311531;19;162897;-13
2022/08/12 05:25:42;;;;;;;10.50;8.88;;;;;;;;;;7311657;19;155030;-13
2022/08/12 05:28:15;;;;;;;11.63;8.65;;;;;;;;;;7311654;19;153985;-13
2022/08/12 05:30:47;;;;;;;15.52;10.40;;;;;;;;;;7312441;19;162712;-13
2022/08/12 05:33:19;;;;;;;17.65;12.27;;;;;;;;;;7311270;19;163326;-15
2022/08/12 05:35:52;;;;;;;26.92;14.45;;;;;;;;;;7313110;19;154719;-15
2022/08/12 05:41:17;;;;;;;27.67;15.90;;;;;;;;;;7312495;19;162898;-12
2022/08/12 05:43:50;;;;;;;30.77;16.58;;;;;;;;;;7310371;19;163207;-13
2022/08/12 05:46:22;;;;;;;37.78;19.73;;;;;;;;;;7312766;19;154446;-15
2022/08/12 05:48:54;;;;;;;37.45;20.65;;;;;;;;;;7312414;19;154046;-15
2022/08/12 05:51:29;;;;;;;37.27;20.87;;;;;;;;;;7312117;19;162288;-15
2022/08/12 05:54:01;;;;;;;39.13;19.95;;;;;;;;;;7311787;19;163332;-14
2022/08/12 05:56:34;;;;;;;41.05;19.63;;;;;;;;;;7310988;19;154461;-14
2022/08/12 05:59:08;;;;;;;33.20;19.27;;;;;;;;;;7312340;19;154043;-14
2022/08/12 06:01:44;;;;;;;39.80;18.58;;;;;;;;;;7311652;19;162227;-14
2022/08/12 06:04:15;;;;;;;35.72;18.42;;;;;;;;;;7309111;19;162840;-15
2022/08/12 06:06:52;;;;;;;35.30;19.30;;;;;;;;;;7310523;19;154854;-15
2022/08/12 06:09:25;;;;;;;35.75;19.75;;;;;;;;;;7311561;19;154218;-14
2022/08/12 06:11:56;;;;;;;36.17;18.52;;;;;;;;;;7311526;19;162613;-14
2022/08/12 06:14:27;;;;;;;31.00;18.58;;;;;;;;;;7311264;19;163225;-14
2022/08/12 06:16:58;;;;;;;33.47;17.92;;;;;;;;;;7311713;19;155074;-14
2022/08/12 06:19:30;;;;;;;33.88;17.90;;;;;;;;;;7308195;19;154205;-14
2022/08/12 06:22:04;;;;;;;32.35;17.55;;;;;;;;;;7311203;19;162347;-14
2022/08/12 06:24:35;;;;;;;29.50;18.75;;;;;;;;;;7309186;19;163211;-14
2022/08/12 06:27:06;;;;;;;32.47;18.83;;;;;;;;;;7311360;19;154861;-14
2022/08/12 06:29:38;;;;;;;31.70;17.75;;;;;;;;;;7311312;19;154092;-13
2022/08/12 06:32:09;;;;;;;33.30;19.35;;;;;;;;;;7311232;19;162282;-14
2022/08/12 06:34:40;;;;;;;34.53;18.48;;;;;;;;;;7310929;19;163252;-14
2022/08/12 06:37:17;;;;;;;37.28;19.38;;;;;;;;;;7311149;19;154399;-14
2022/08/12 06:39:48;;;;;;;34.85;19.60;;;;;;;;;;7310583;19;154364;-15
2022/08/12 06:45:04;;;;;;;45.47;24.30;;;;;;;;;;7314894;19;163258;-14
2022/08/12 06:47:39;;;;;;;38.20;22.13;;;;;;;;;;7317787;19;154530;-14
2022/08/12 06:50:15;;;;;;;35.13;20.80;;;;;;;;;;7317370;19;154095;-14
2022/08/12 06:52:49;;;;;;;34.65;20.38;;;;;;;;;;7317012;19;162699;-14
2022/08/12 06:55:21;;;;;;;40.17;21.73;;;;;;;;;;7316781;19;163195;-14
2022/08/12 06:57:55;;;;;;;35.33;19.88;;;;;;;;;;7317273;19;154331;-13
2022/08/12 07:00:29;;;;;;;39.38;21.83;;;;;;;;;;7317194;19;154581;-14
2022/08/12 07:03:00;;;;;;;35.25;18.85;;;;;;;;;;7316613;19;162252;-14
2022/08/12 07:05:31;;;;;;;36.10;20.38;;;;;;;;;;7314740;19;162926;-14
2022/08/12 07:08:12;;;;;;;35.30;20.30;;;;;;;;;;7316988;19;154859;-14
2022/08/12 07:10:53;;;;;;;33.85;19.77;;;;;;;;;;7316484;19;154668;-14
2022/08/12 07:13:24;;;;;;;34.85;19.27;;;;;;;;;;7316430;19;161880;-14
2022/08/12 07:15:57;;;;;;;32.03;20.15;;;;;;;;;;7316522;19;163333;-14
2022/08/12 07:18:31;;;;;;;37.58;20.38;;;;;;;;;;7316203;19;154520;-14
2022/08/12 07:21:03;;;;;;;41.10;20.75;;;;;;;;;;7316522;19;154456;-15
2022/08/12 07:23:39;;;;;;;35.25;19.73;;;;;;;;;;7316122;19;162301;-14
2022/08/12 07:26:15;;;;;;;34.70;19.20;;;;;;;;;;7316120;19;163421;-14
2022/08/12 07:28:49;;;;;;;37.17;20.55;;;;;;;;;;7316727;19;154470;-14
2022/08/12 07:31:20;;;;;;;35.05;20.55;;;;;;;;;;7316272;19;154548;-14
2022/08/12 07:33:51;;;;;;;38.25;20.33;;;;;;;;;;7316034;19;162522;-14
2022/08/12 07:36:24;;;;;;;34.95;18.30;;;;;;;;;;7315592;19;163277;-14
2022/08/12 07:38:58;;;;;;;34.20;19.55;;;;;;;;;;7316586;19;154949;-13
2022/08/12 07:41:33;;;;;;;33.17;19.92;;;;;;;;;;7314332;19;154031;-14
2022/08/12 07:44:07;;;;;;;36.05;20.05;;;;;;;;;;7313747;19;162185;-14
2022/08/12 07:46:40;;;;;;;42.30;22.25;;;;;;;;;;7315427;19;162997;-14
2022/08/12 07:49:13;;;;;;;41.65;22.40;;;;;;;;;;7315893;19;154981;-14
2022/08/12 07:51:45;;;;;;;34.50;19.20;;;;;;;;;;7313517;19;154127;-14
2022/08/12 07:54:19;;;;;;;29.23;18.50;;;;;;;;;;7315506;19;162297;-14
2022/08/12 07:56:50;;;;;;;34.67;20.77;;;;;;;;;;7315212;19;162882;-14
2022/08/12 07:59:23;;;;;;;34.72;19.92;;;;;;;;;;7315307;19;154548;-13
2022/08/12 08:01:59;;;;;;;32.75;20.42;;;;;;;;;;7315544;19;153668;-14
2022/08/12 08:07:15;;;;;;;35.72;21.27;;;;;;;;;;7313232;19;163406;-14
2022/08/12 08:09:52;;;;;;;37.63;21.40;;;;;;;;;;7315324;19;154829;-14
2022/08/12 08:15:08;;;;;;;32.80;20.23;;;;;;;;;;7314774;19;162402;-13
2022/08/12 08:17:40;;;;;;;29.98;19.80;;;;;;;;;;7314567;19;163289;-14
2022/08/12 08:20:14;;;;;;;34.05;20.17;;;;;;;;;;7312694;19;154177;-14
2022/08/12 08:22:46;;;;;;;35.35;20.30;;;;;;;;;;7314843;19;155186;-14
2022/08/12 08:25:20;;;;;;;34.40;21.17;;;;;;;;;;7313073;19;162265;-14
2022/08/12 08:27:51;;;;;;;30.27;20.10;;;;;;;;;;7312876;19;162890;-14
2022/08/12 08:30:22;;;;;;;35.65;20.98;;;;;;;;;;7314778;19;154818;-13
2022/08/12 08:32:55;;;;;;;33.90;20.55;;;;;;;;;;7313750;19;154044;-14
2022/08/12 08:35:26;;;;;;;30.05;19.73;;;;;;;;;;7314240;19;162703;-14
2022/08/12 08:38:08;;;;;;;32.10;18.53;;;;;;;;;;7313929;19;162871;-14
2022/08/12 08:43:32;;;;;;;33.47;19.03;;;;;;;;;;7314195;19;154088;-14
2022/08/12 08:46:04;;;;;;;32.08;19.55;;;;;;;;;;7310244;19;162333;-14
2022/08/12 08:48:36;;;;;;;27.02;18.38;;;;;;;;;;7313465;19;163530;-14
2022/08/12 08:51:07;;;;;;;28.38;17.42;;;;;;;;;;7313652;19;154402;-14
2022/08/12 08:53:40;;;;;;;35.22;18.85;;;;;;;;;;7312402;19;154818;-14
2022/08/12 08:56:13;;;;;;;;;;;;;;;;;;7314032;19;162606;-14
2022/08/12 08:58:45;;;;;;;34.92;17.60;;;;;;;;;;7313374;19;163164;-14
2022/08/12 09:01:20;;;;;;;25.02;16.90;;;;;;;;;;7313661;19;154387;-14
2022/08/12 09:03:52;;;;;;;31.08;17.50;;;;;;;;;;7311757;19;154629;-14
2022/08/12 09:06:23;;;;;;;29.10;16.67;;;;;;;;;;7310842;19;162224;-14
2022/08/12 09:08:55;;;;;;;29.92;17.00;;;;;;;;;;7312774;19;163025;-14
2022/08/12 09:14:12;;;;;;;28.33;16.73;;;;;;;;;;7311409;19;153675;-14
2022/08/12 09:16:43;;;;;;;22.60;15.98;;;;;;;;;;7312861;19;162227;-14
2022/08/12 09:19:16;;;;;;;23.48;16.38;;;;;;;;;;7311291;19;163501;-14
2022/08/12 09:21:48;;;;;;;26.58;16.27;;;;;;;;;;7313438;19;154894;-13
2022/08/12 09:24:19;;;;;;;27.27;16.67;;;;;;;;;;7313026;19;154262;-14
2022/08/12 09:26:53;;;;;;;26.90;16.92;;;;;;;;;;7310431;19;162709;-14
2022/08/12 09:29:24;;;;;;;25.88;16.15;;;;;;;;;;7312586;19;163346;-14
2022/08/12 09:31:55;;;;;;;22.27;15.18;;;;;;;;;;7313065;19;154399;-13
2022/08/12 09:34:28;;;;;;;24.70;16.10;;;;;;;;;;7312691;19;154100;-13
2022/08/12 09:37:02;;;;;;;20.63;14.35;;;;;;;;;;7312169;19;162829;-14
2022/08/12 09:39:34;;;;;;;26.70;16.37;;;;;;;;;;7310687;19;163585;-13
2022/08/12 09:47:36;;;;;;;25.38;16.92;;;;;;;;;;7311907;19;162645;-13
2022/08/12 09:50:08;;;;;;;25.60;15.48;;;;;;;;;;7311823;19;162948;-13
2022/08/12 09:52:39;;;;;;;26.00;14.95;;;;;;;;;;7312211;19;155402;-13
2022/08/12 09:55:11;;;;;;;23.60;15.20;;;;;;;;;;7312086;19;154049;-14
2022/08/12 09:57:45;;;;;;;23.95;15.07;;;;;;;;;;7311402;19;162619;-15
2022/08/12 10:00:17;;;;;;;24.17;14.90;;;;;;;;;;7311485;19;162997;-13
2022/08/12 10:03:03;;;;;;;22.58;13.95;;;;;;;;;;7311940;19;154404;-14
2022/08/12 10:05:37;;;;;;;24.63;15.25;;;;;;;;;;7311087;19;154103;-13
2022/08/12 10:08:12;;;;;;;24.42;13.93;;;;;;;;;;7309848;19;162738;-14
2022/08/12 10:13:43;;;;;;;23.45;13.88;;;;;;;;;;7311742;19;154885;-14
2022/08/12 10:16:16;;;;;;;22.15;14.13;;;;;;;;;;7311299;19;153537;-15
2022/08/12 10:18:50;;;;;;;22.20;14.55;;;;;;;;;;7310356;19;162122;-15
2022/08/12 10:21:24;;;;;;;22.63;14.20;;;;;;;;;;7309215;19;163502;-13
2022/08/12 10:23:56;;;;;;;20.23;13.75;;;;;;;;;;7311452;19;154617;-15
2022/08/12 10:32:11;;;;;;;22.58;14.60;;;;;;;;;;7308405;19;163572;-15
2022/08/12 10:34:42;;;;;;;21.45;13.82;;;;;;;;;;7311018;19;154417;-15
2022/08/12 10:37:13;;;;;;;20.92;13.45;;;;;;;;;;7310645;19;153927;-15
2022/08/12 10:39:45;;;;;;;20.70;13.63;;;;;;;;;;7310865;19;161728;-15
2022/08/12 10:45:08;;;;;;;20.33;13.57;;;;;;;;;;7310845;19;153941;-15
2022/08/12 10:47:42;;;;;;;19.25;13.60;;;;;;;;;;7306490;19;154144;-15
2022/08/12 10:50:13;;;;;;;19.85;13.50;;;;;;;;;;7308581;19;162419;-15
2022/08/12 10:52:49;;;;;;;18.42;13.23;;;;;;;;;;7310211;19;163464;-14
2022/08/12 10:55:20;;;;;;;20.75;13.15;;;;;;;;;;7310372;19;154348;-15
2022/08/12 10:57:51;;;;;;;17.23;13.18;;;;;;;;;;7310011;19;154369;-14
2022/08/12 11:00:25;;;;;;;21.25;13.43;;;;;;;;;;7310236;19;162257;-14
2022/08/12 11:02:56;;;;;;;15.07;11.98;;;;;;;;;;7309918;19;162765;-14
2022/08/12 11:05:33;;;;;;;20.60;12.80;;;;;;;;;;7310135;19;155031;-15
2022/08/12 11:08:04;;;;;;;18.77;12.63;;;;;;;;;;7307915;19;154586;-15
2022/08/12 11:10:35;;;;;;;20.60;13.82;;;;;;;;;;7309231;19;162309;-15
2022/08/12 11:13:07;;;;;;;17.40;12.73;;;;;;;;;;7309413;19;162484;-15
2022/08/12 11:15:40;;;;;;;18.10;12.53;;;;;;;;;;7308219;19;154515;-15
2022/08/12 11:18:12;;;;;;;17.67;12.73;;;;;;;;;;7309230;19;154643;-15
2022/08/12 11:20:43;;;;;;;25.27;14.40;;;;;;;;;;7307557;19;162303;-15
2022/08/12 11:23:15;;;;;;;16.95;12.88;;;;;;;;;;7308871;19;162862;-15
2022/08/12 11:25:47;;;;;;;17.55;13.30;;;;;;;;;;7309380;19;155106;-15
2022/08/12 11:28:20;;;;;;;24.17;13.20;;;;;;;;;;7311782;19;154149;-14
2022/08/12 11:30:54;;;;;;;17.83;13.20;;;;;;;;;;7315881;19;162304;-14
2022/08/12 11:33:26;;;;;;;20.05;13.65;;;;;;;;;;7313948;19;162899;-15
2022/08/12 11:36:06;;;;;;;17.42;12.75;;;;;;;;;;7316126;19;154868;-14
2022/08/12 11:38:43;;;;;;;21.88;13.52;;;;;;;;;;7316731;19;153931;-14
2022/08/12 11:41:14;;;;;;;22.92;13.70;;;;;;;;;;7314820;19;162908;-14
2022/08/12 11:43:45;;;;;;;18.88;13.43;;;;;;;;;;7315847;19;163397;-15
2022/08/12 11:46:21;;;;;;;19.15;12.80;;;;;;;;;;7315623;19;154654;-15
2022/08/12 11:48:52;;;;;;;18.17;13.05;;;;;;;;;;7315356;19;154378;-15
2022/08/12 11:51:23;;;;;;;20.02;12.60;;;;;;;;;;7313767;19;162400;-14
2022/08/12 11:53:54;;;;;;;22.08;12.75;;;;;;;;;;7315243;19;163404;-15
2022/08/12 11:56:26;;;;;;;21.67;13.00;;;;;;;;;;7315572;19;154486;-14
2022/08/12 11:58:57;;;;;;;19.87;12.87;;;;;;;;;;7315711;19;154175;-15
2022/08/12 12:01:51;;;;;;;21.35;13.77;;;;;;;;;;7315172;19;162902;-14
2022/08/12 12:04:22;;;;;;;20.00;13.45;;;;;;;;;;7314908;19;163334;-15
2022/08/12 12:06:57;;;;;;;19.75;12.55;;;;;;;;;;7314445;19;153880;-12
2022/08/12 12:09:28;;;;;;;18.65;12.85;;;;;;;;;;7315299;19;154445;-14
2022/08/12 12:11:59;;;;;;;14.68;11.88;;;;;;;;;;7314805;19;162788;-14
2022/08/12 12:14:31;;;;;;;18.02;13.00;;;;;;;;;;7314773;19;162988;-14
2022/08/12 12:17:05;;;;;;;16.80;12.45;;;;;;;;;;7315188;19;154349;-14
2022/08/12 12:19:36;;;;;;;16.90;12.82;;;;;;;;;;7313447;19;154153;-14
2022/08/12 12:22:10;;;;;;;21.73;13.23;;;;;;;;;;7314377;19;162302;-15
2022/08/12 12:24:49;;;;;;;17.88;12.18;;;;;;;;;;7314117;19;162989;-14
2022/08/12 12:27:21;;;;;;;18.08;11.93;;;;;;;;;;7314208;19;154474;-14
2022/08/12 12:29:52;;;;;;;18.47;12.13;;;;;;;;;;7314798;19;154059;-14
2022/08/12 12:32:26;;;;;;;18.17;11.77;;;;;;;;;;7312570;19;162256;-14
2022/08/12 12:34:58;;;;;;;17.35;11.10;;;;;;;;;;7314169;19;163398;-13
2022/08/12 12:37:29;;;;;;;18.60;12.30;;;;;;;;;;7314443;19;154497;-13
2022/08/12 12:40:00;;;;;;;16.50;11.68;;;;;;;;;;7314676;19;153952;-14
2022/08/12 12:42:32;;;;;;;18.70;12.35;;;;;;;;;;7314112;19;162426;-14
2022/08/12 12:45:03;;;;;;;18.75;12.02;;;;;;;;;;7313921;19;163388;-13
2022/08/12 12:47:37;;;;;;;19.10;12.07;;;;;;;;;;7313627;19;154487;-14
2022/08/12 12:50:09;;;;;;;18.38;12.60;;;;;;;;;;7314187;19;154374;-14
2022/08/12 12:52:40;;;;;;;17.13;11.68;;;;;;;;;;7313145;19;162248;-14
2022/08/12 12:55:15;;;;;;;15.60;12.02;;;;;;;;;;7313612;19;162883;-14
2022/08/12 12:57:46;;;;;;;16.00;11.98;;;;;;;;;;7313520;19;154451;-13
2022/08/12 13:00:19;;;;;;;19.85;11.93;;;;;;;;;;7313974;19;154086;-13
2022/08/12 13:02:54;;;;;;;;;;;;;;;;;;7313798;19;162206;-13
2022/08/12 13:05:28;;;;;;;16.15;11.00;;;;;;;;;;7313479;19;163006;-14
2022/08/12 13:08:02;;;;;;;17.90;12.25;;;;;;;;;;7312659;19;154371;-14
2022/08/12 13:10:34;;;;;;;17.65;12.52;;;;;;;;;;7313173;19;154199;-14
2022/08/12 13:13:06;;;;;;;16.67;11.98;;;;;;;;;;7312642;19;162338;-14
2022/08/12 13:15:37;;;;;;;17.38;11.43;;;;;;;;;;7312416;19;163012;-14
2022/08/12 13:18:11;;;;;;;16.50;11.25;;;;;;;;;;7313201;19;154497;-14
2022/08/12 13:20:43;;;;;;;15.15;11.05;;;;;;;;;;7312895;19;154017;-14
2022/08/12 13:23:18;;;;;;;16.10;11.17;;;;;;;;;;7311099;19;162382;-14
2022/08/12 13:25:50;;;;;;;17.52;11.23;;;;;;;;;;7312625;19;163037;-14
2022/08/12 13:28:27;;;;;;;17.90;12.20;;;;;;;;;;7310186;19;154656;-13
2022/08/12 13:30:59;;;;;;;18.08;11.88;;;;;;;;;;7312887;19;154039;-14
2022/08/12 13:33:33;;;;;;;;;;;;;;;;;;7313041;19;162254;-14
2022/08/12 13:36:06;;;;;;;17.75;11.93;;;;;;;;;;7312572;19;163599;-14
2022/08/12 13:38:38;;;;;;;15.45;11.43;;;;;;;;;;7313063;19;154515;-14
2022/08/12 13:41:15;;;;;;;17.13;11.32;;;;;;;;;;7312378;19;154645;-14
2022/08/12 13:43:46;;;;;;;16.13;11.15;;;;;;;;;;7311988;19;162478;-14
2022/08/12 13:46:18;;;;;;;18.15;11.25;;;;;;;;;;7311866;19;163461;-14
2022/08/12 13:48:53;;;;;;;15.55;11.02;;;;;;;;;;7310872;19;155002;-13
2022/08/12 13:51:24;;;;;;;16.48;11.90;;;;;;;;;;7311660;19;154077;-14
2022/08/12 13:53:55;;;;;;;18.92;11.20;;;;;;;;;;7311708;19;162784;-14
2022/08/12 13:56:27;;;;;;;17.90;11.43;;;;;;;;;;7311608;19;163559;-14
2022/08/12 13:58:58;;;;;;;15.07;10.30;;;;;;;;;;7310234;19;153973;-15
2022/08/12 14:01:29;;;;;;;16.00;11.13;;;;;;;;;;7311562;19;154832;-14
2022/08/12 14:04:04;;;;;;;14.90;10.50;;;;;;;;;;7311515;19;162392;-14
2022/08/12 14:06:37;;;;;;;14.20;10.93;;;;;;;;;;7310968;19;163502;-14
2022/08/12 14:09:09;;;;;;;15.15;10.70;;;;;;;;;;7308009;19;154457;-14
2022/08/12 14:11:40;;;;;;;16.77;10.70;;;;;;;;;;7311595;19;154404;-14
2022/08/12 14:14:11;;;;;;;19.02;10.48;;;;;;;;;;7311028;19;162224;-14
2022/08/12 14:16:44;;;;;;;14.30;10.65;;;;;;;;;;7311089;19;162933;-14
2022/08/12 14:19:18;;;;;;;14.07;10.27;;;;;;;;;;7309858;19;154774;-14
2022/08/12 14:21:49;;;;;;;17.60;10.98;;;;;;;;;;7309762;19;154077;-14
2022/08/12 14:24:21;;;;;;;16.42;10.93;;;;;;;;;;7310644;19;162227;-14
2022/08/12 14:26:53;;;;;;;18.43;11.23;;;;;;;;;;7311213;19;162875;-15
2022/08/12 14:29:25;;;;;;;16.15;10.43;;;;;;;;;;7309986;19;154385;-14
2022/08/12 14:31:58;;;;;;;14.55;10.95;;;;;;;;;;7311282;19;153659;-14
2022/08/12 14:34:32;;;;;;;13.82;10.20;;;;;;;;;;7309003;19;162705;-14
2022/08/12 14:37:04;;;;;;;14.70;10.85;;;;;;;;;;7310867;19;162938;-15
2022/08/12 14:39:35;;;;;;;14.15;11.35;;;;;;;;;;7311525;19;154888;-14
2022/08/12 14:42:06;;;;;;;13.13;9.23;;;;;;;;;;7310936;19;153949;-14
2022/08/12 14:44:38;;;;;;;13.90;9.50;;;;;;;;;;7310276;19;162663;-15
2022/08/12 14:47:09;;;;;;;14.50;10.60;;;;;;;;;;7308378;19;163192;-15
2022/08/12 14:49:44;;;;;;;14.15;10.70;;;;;;;;;;7309204;19;153925;-15
2022/08/12 14:52:15;;;;;;;13.60;10.20;;;;;;;;;;7310450;19;154073;-14
2022/08/12 14:54:47;;;;;;;14.32;10.52;;;;;;;;;;7310115;19;162917;-14
2022/08/12 14:57:54;;;;;;;13.25;10.23;;;;;;;;;;7309822;19;163117;-14
2022/08/12 15:03:09;;;;;;;13.32;9.57;;;;;;;;;;7316103;19;154018;-15
2022/08/12 15:05:44;;;;;;;12.18;9.73;;;;;;;;;;7316747;19;162305;-14
2022/08/12 15:08:18;;;;;;;14.00;10.15;;;;;;;;;;7316590;19;162961;-15
2022/08/12 15:10:49;;;;;;;13.20;9.75;;;;;;;;;;7314764;19;154503;-16
2022/08/12 15:13:22;;;;;;;13.88;10.10;;;;;;;;;;7316342;19;153951;-15
2022/08/12 15:15:55;;;;;;;14.05;10.18;;;;;;;;;;7316329;19;162107;-14
2022/08/12 15:18:42;;;;;;;12.45;9.98;;;;;;;;;;7314169;19;163031;-14
2022/08/12 15:21:18;;;;;;;12.40;9.40;;;;;;;;;;7316629;19;154468;-14
2022/08/12 15:23:50;;;;;;;14.27;10.18;;;;;;;;;;7315124;19;154442;-14
2022/08/12 15:26:21;;;;;;;13.88;9.60;;;;;;;;;;7315896;19;162614;-14
2022/08/12 15:28:53;;;;;;;15.05;10.95;;;;;;;;;;7315702;19;162907;-14
2022/08/12 15:31:27;;;;;;;12.00;9.68;;;;;;;;;;7316246;19;154503;-14
2022/08/12 15:33:59;;;;;;;14.00;10.00;;;;;;;;;;7316010;19;154028;-15
2022/08/12 15:36:33;;;;;;;10.73;8.85;;;;;;;;;;7315574;19;161735;-14
2022/08/12 15:39:04;;;;;;;11.85;9.52;;;;;;;;;;7315978;19;163346;-14
2022/08/12 15:41:36;;;;;;;12.70;9.82;;;;;;;;;;7315653;19;154082;-14
2022/08/12 15:44:09;;;;;;;11.90;9.63;;;;;;;;;;7313901;19;154110;-14
2022/08/12 15:46:41;;;;;;;13.65;9.85;;;;;;;;;;7315648;19;163588;-14
2022/08/12 15:49:12;;;;;;;12.98;8.95;;;;;;;;;;7315172;19;162904;-14
2022/08/12 15:51:46;;;;;;;10.45;9.30;;;;;;;;;;7315653;19;154986;-14
2022/08/12 15:54:18;;;;;;;12.20;8.80;;;;;;;;;;7315855;19;154510;-14
2022/08/12 15:56:49;;;;;;;14.43;9.47;;;;;;;;;;7315288;19;162138;-14
2022/08/12 15:59:20;;;;;;;16.65;9.60;;;;;;;;;;7315332;19;163517;-14
2022/08/12 16:01:53;;;;;;;13.75;9.43;;;;;;;;;;7313942;19;154821;-15
2022/08/12 16:04:25;;;;;;;13.30;9.27;;;;;;;;;;7315279;19;154015;-15
2022/08/12 16:06:58;;;;;;;15.68;9.35;;;;;;;;;;7314944;19;161926;-15
2022/08/12 16:09:34;;;;;;;12.55;8.45;;;;;;;;;;7314588;19;162981;-13
2022/08/12 16:12:06;;;;;;;14.20;9.65;;;;;;;;;;7314621;19;154563;-14
2022/08/12 16:14:38;;;;;;;12.18;9.30;;;;;;;;;;7315010;19;154164;-14
2022/08/12 16:17:09;;;;;;;11.18;9.02;;;;;;;;;;7314710;19;163288;-14
2022/08/12 16:19:41;;;;;;;15.60;9.43;;;;;;;;;;7313084;19;163579;-14
2022/08/12 16:22:15;;;;;;;15.03;9.10;;;;;;;;;;7313382;19;154836;-14
2022/08/12 16:24:46;;;;;;;10.82;8.13;;;;;;;;;;7314878;19;153950;-13
2022/08/12 16:27:18;;;;;;;10.90;8.50;;;;;;;;;;7314370;19;162314;-14
2022/08/12 16:29:55;;;;;;;13.77;9.00;;;;;;;;;;7314115;19;162993;-14
2022/08/12 16:32:27;;;;;;;11.02;9.43;;;;;;;;;;7314483;19;154462;-14
2022/08/12 16:34:59;;;;;;;11.15;8.55;;;;;;;;;;7314522;19;154626;-14
2022/08/12 16:37:33;;;;;;;13.07;8.95;;;;;;;;;;7313457;19;162245;-14
2022/08/12 16:40:06;;;;;;;14.20;9.10;;;;;;;;;;7314049;19;162983;-14
2022/08/12 16:42:40;;;;;;;11.07;8.65;;;;;;;;;;7314048;19;154455;-14
2022/08/12 16:45:18;;;;;;;11.77;9.20;;;;;;;;;;7314495;19;154053;-14
2022/08/12 16:47:50;;;;;;;13.18;9.15;;;;;;;;;;7313780;19;162264;-14